sensor_id;sensor_type;location;lat;lon;timestamp;pressure;altitude;pressure_sealevel;temperature;humidity
50684;BME280;36654;45.042;38.994;2023-04-02T00:07:43;100747.47;;;7.35;43.96
50684;BME280;36654;45.042;38.994;2023-04-02T00:10:34;100747.41;;;7.32;43.99
50684;BME280;36654;45.042;38.994;2023-04-02T00:15:43;100752.75;;;7.35;44.34
50684;BME280;36654;45.042;38.994;2023-04-02T00:18:16;100763.22;;;7.32;44.18
50684;BME280;36654;45.042;38.994;2023-04-02T00:20:49;100754.31;;;7.27;44.30
50684;BME280;36654;45.042;38.994;2023-04-02T00:23:15;100750.81;;;7.28;44.48
50684;BME280;36654;45.042;38.994;2023-04-02T00:25:42;100753.56;;;7.32;44.25
50684;BME280;36654;45.042;38.994;2023-04-02T00:28:14;100756.16;;;7.31;44.23
50684;BME280;36654;45.042;38.994;2023-04-02T00:30:53;100707.94;;;7.00;44.71
50684;BME280;36654;45.042;38.994;2023-04-02T00:33:22;100722.13;;;7.05;44.65
50684;BME280;36654;45.042;38.994;2023-04-02T00:35:50;100769.16;;;7.23;44.57
50684;BME280;36654;45.042;38.994;2023-04-02T00:38:23;100766.56;;;7.25;44.55
50684;BME280;36654;45.042;38.994;2023-04-02T00:40:51;100770.84;;;7.21;44.78
50684;BME280;36654;45.042;38.994;2023-04-02T00:43:19;100764.69;;;7.21;45.14
50684;BME280;36654;45.042;38.994;2023-04-02T00:45:54;100771.75;;;7.22;45.53
50684;BME280;36654;45.042;38.994;2023-04-02T00:50:53;100750.34;;;7.09;46.58
50684;BME280;36654;45.042;38.994;2023-04-02T00:53:24;100770.59;;;7.10;46.86
50684;BME280;36654;45.042;38.994;2023-04-02T00:55:52;100766.16;;;7.09;47.37
50684;BME280;36654;45.042;38.994;2023-04-02T01:00:54;100748.16;;;6.93;48.39
50684;BME280;36654;45.042;38.994;2023-04-02T01:05:58;100777.47;;;7.05;49.06
50684;BME280;36654;45.042;38.994;2023-04-02T01:08:49;100778.38;;;7.06;50.11
50684;BME280;36654;45.042;38.994;2023-04-02T01:11:41;100778.41;;;7.07;50.58
50684;BME280;36654;45.042;38.994;2023-04-02T01:21:56;100781.91;;;7.06;51.80
50684;BME280;36654;45.042;38.994;2023-04-02T01:24:29;100762.59;;;7.07;52.43
50684;BME280;36654;45.042;38.994;2023-04-02T01:27:12;100768.75;;;7.06;52.43
50684;BME280;36654;45.042;38.994;2023-04-02T01:29:44;100733.78;;;6.80;53.06
50684;BME280;36654;45.042;38.994;2023-04-02T01:32:14;100761.53;;;7.01;53.53
50684;BME280;36654;45.042;38.994;2023-04-02T01:34:43;100770.25;;;6.98;54.16
50684;BME280;36654;45.042;38.994;2023-04-02T01:37:29;100761.41;;;6.95;54.54
50684;BME280;36654;45.042;38.994;2023-04-02T01:43:09;100753.97;;;6.80;55.86
50684;BME280;36654;45.042;38.994;2023-04-02T01:45:37;100759.25;;;6.80;55.93
50684;BME280;36654;45.042;38.994;2023-04-02T01:48:23;100765.28;;;6.76;56.43
50684;BME280;36654;45.042;38.994;2023-04-02T01:50:53;100760.59;;;6.65;56.77
50684;BME280;36654;45.042;38.994;2023-04-02T01:53:21;100764.25;;;6.70;56.94
50684;BME280;36654;45.042;38.994;2023-04-02T01:55:54;100762.44;;;6.68;57.07
50684;BME280;36654;45.042;38.994;2023-04-02T01:58:27;100749.94;;;6.61;57.37
50684;BME280;36654;45.042;38.994;2023-04-02T02:01:14;100742.75;;;6.55;58.02
50684;BME280;36654;45.042;38.994;2023-04-02T02:03:42;100747.09;;;6.53;58.02
50684;BME280;36654;45.042;38.994;2023-04-02T02:06:14;100752.34;;;6.53;58.26
50684;BME280;36654;45.042;38.994;2023-04-02T02:08:50;100749.66;;;6.50;58.77
50684;BME280;36654;45.042;38.994;2023-04-02T02:11:21;100754.16;;;6.54;58.66
50684;BME280;36654;45.042;38.994;2023-04-02T02:13:50;100761.13;;;6.52;59.08
50684;BME280;36654;45.042;38.994;2023-04-02T02:16:19;100721.09;;;6.34;59.13
50684;BME280;36654;45.042;38.994;2023-04-02T02:18:49;100745.13;;;6.46;59.47
50684;BME280;36654;45.042;38.994;2023-04-02T02:21:39;100762.75;;;6.47;59.58
50684;BME280;36654;45.042;38.994;2023-04-02T02:24:23;100740.31;;;6.31;59.90
50684;BME280;36654;45.042;38.994;2023-04-02T02:29:38;100749.22;;;6.35;60.19
50684;BME280;36654;45.042;38.994;2023-04-02T02:32:06;100760.69;;;6.37;60.34
50684;BME280;36654;45.042;38.994;2023-04-02T02:34:38;100754.50;;;6.35;60.32
50684;BME280;36654;45.042;38.994;2023-04-02T02:37:13;100742.94;;;6.30;60.33
50684;BME280;36654;45.042;38.994;2023-04-02T02:39:43;100754.28;;;6.29;60.41
50684;BME280;36654;45.042;38.994;2023-04-02T02:42:35;100750.84;;;6.31;60.64
50684;BME280;36654;45.042;38.994;2023-04-02T02:45:06;100747.31;;;6.29;60.73
50684;BME280;36654;45.042;38.994;2023-04-02T02:47:37;100753.28;;;6.23;60.90
50684;BME280;36654;45.042;38.994;2023-04-02T02:50:11;100736.44;;;6.17;61.12
50684;BME280;36654;45.042;38.994;2023-04-02T02:52:44;100745.28;;;6.20;61.46
50684;BME280;36654;45.042;38.994;2023-04-02T02:57:43;100743.53;;;6.21;61.77
50684;BME280;36654;45.042;38.994;2023-04-02T03:00:11;100749.81;;;6.24;61.71
50684;BME280;36654;45.042;38.994;2023-04-02T03:02:38;100737.59;;;6.26;61.62
50684;BME280;36654;45.042;38.994;2023-04-02T03:05:06;100683.94;;;5.93;61.64
50684;BME280;36654;45.042;38.994;2023-04-02T03:07:33;100734.84;;;6.23;61.55
50684;BME280;36654;45.042;38.994;2023-04-02T03:10:09;100734.97;;;6.26;61.69
50684;BME280;36654;45.042;38.994;2023-04-02T03:12:43;100688.56;;;6.00;61.68
50684;BME280;36654;45.042;38.994;2023-04-02T03:15:22;100735.19;;;6.67;61.53
50684;BME280;36654;45.042;38.994;2023-04-02T03:18:55;100707.94;;;7.00;60.74
50684;BME280;36654;45.042;38.994;2023-04-02T03:21:05;100734.06;;;7.64;59.42
50684;BME280;36654;45.042;38.994;2023-04-02T03:23:39;100727.97;;;8.06;58.64
50684;BME280;36654;45.042;38.994;2023-04-02T03:26:11;100740.53;;;8.60;57.09
50684;BME280;36654;45.042;38.994;2023-04-02T03:28:45;100742.38;;;9.11;55.46
50684;BME280;36654;45.042;38.994;2023-04-02T03:31:21;100728.16;;;9.61;53.86
50684;BME280;36654;45.042;38.994;2023-04-02T03:34:00;100733.22;;;10.06;52.09
50684;BME280;36654;45.042;38.994;2023-04-02T03:36:42;100737.38;;;10.54;51.26
50684;BME280;36654;45.042;38.994;2023-04-02T03:39:14;100730.78;;;11.02;49.70
50684;BME280;36654;45.042;38.994;2023-04-02T03:41:53;100724.84;;;11.33;48.22
50684;BME280;36654;45.042;38.994;2023-04-02T03:44:31;100720.63;;;11.56;47.81
50684;BME280;36654;45.042;38.994;2023-04-02T03:47:22;100726.25;;;12.04;46.66
50684;BME280;36654;45.042;38.994;2023-04-02T03:49:56;100721.94;;;12.37;45.78
50684;BME280;36654;45.042;38.994;2023-04-02T03:52:28;100714.09;;;12.73;44.61
50684;BME280;36654;45.042;38.994;2023-04-02T03:54:56;100724.75;;;13.07;43.25
50684;BME280;36654;45.042;38.994;2023-04-02T04:00:05;100738.97;;;13.65;41.73
50684;BME280;36654;45.042;38.994;2023-04-02T04:05:00;100722.03;;;14.01;40.96
50684;BME280;36654;45.042;38.994;2023-04-02T04:07:34;100724.66;;;14.12;40.87
50684;BME280;36654;45.042;38.994;2023-04-02T04:10:02;100731.72;;;14.22;41.07
50684;BME280;36654;45.042;38.994;2023-04-02T04:12:34;100706.00;;;14.09;41.07
50684;BME280;36654;45.042;38.994;2023-04-02T04:15:13;100684.66;;;14.15;41.04
50684;BME280;36654;45.042;38.994;2023-04-02T04:20:39;100727.94;;;14.78;40.71
50684;BME280;36654;45.042;38.994;2023-04-02T04:23:24;100713.66;;;14.85;40.63
50684;BME280;36654;45.042;38.994;2023-04-02T04:31:52;100712.47;;;15.23;39.43
50684;BME280;36654;45.042;38.994;2023-04-02T04:34:38;100713.44;;;15.10;39.30
50684;BME280;36654;45.042;38.994;2023-04-02T04:37:18;100721.63;;;14.87;39.70
50684;BME280;36654;45.042;38.994;2023-04-02T04:39:59;100709.38;;;14.49;39.99
50684;BME280;36654;45.042;38.994;2023-04-02T04:42:30;100718.31;;;14.42;40.14
50684;BME280;36654;45.042;38.994;2023-04-02T04:47:54;100715.66;;;14.37;39.29
50684;BME280;36654;45.042;38.994;2023-04-02T04:50:32;100706.81;;;14.29;38.79
50684;BME280;36654;45.042;38.994;2023-04-02T04:53:11;100675.00;;;13.83;38.54
50684;BME280;36654;45.042;38.994;2023-04-02T04:55:42;100716.66;;;14.13;38.67
50684;BME280;36654;45.042;38.994;2023-04-02T04:58:22;100715.69;;;14.25;38.21
50684;BME280;36654;45.042;38.994;2023-04-02T05:01:02;100711.31;;;14.12;37.84
50684;BME280;36654;45.042;38.994;2023-04-02T05:06:17;100687.44;;;13.75;38.58
50684;BME280;36654;45.042;38.994;2023-04-02T05:08:46;100709.59;;;13.94;38.51
50684;BME280;36654;45.042;38.994;2023-04-02T05:11:43;100722.13;;;13.56;38.59
50684;BME280;36654;45.042;38.994;2023-04-02T05:14:37;100715.88;;;13.02;39.64
50684;BME280;36654;45.042;38.994;2023-04-02T05:17:10;100715.78;;;12.41;40.47
50684;BME280;36654;45.042;38.994;2023-04-02T05:19:59;100697.75;;;11.81;41.31
50684;BME280;36654;45.042;38.994;2023-04-02T05:22:34;100720.59;;;11.58;42.07
50684;BME280;36654;45.042;38.994;2023-04-02T05:25:26;100729.28;;;11.35;42.51
50684;BME280;36654;45.042;38.994;2023-04-02T05:32:54;100726.25;;;10.92;43.65
50684;BME280;36654;45.042;38.994;2023-04-02T05:35:29;100716.44;;;10.82;43.46
50684;BME280;36654;45.042;38.994;2023-04-02T05:37:56;100718.16;;;10.77;43.69
50684;BME280;36654;45.042;38.994;2023-04-02T05:40:28;100727.06;;;10.85;43.94
50684;BME280;36654;45.042;38.994;2023-04-02T05:42:56;100730.63;;;10.87;43.69
50684;BME280;36654;45.042;38.994;2023-04-02T05:45:36;100737.72;;;10.87;43.84
50684;BME280;36654;45.042;38.994;2023-04-02T05:48:43;100710.16;;;10.71;43.87
50684;BME280;36654;45.042;38.994;2023-04-02T05:51:07;100725.22;;;10.75;43.84
50684;BME280;36654;45.042;38.994;2023-04-02T05:53:36;100708.34;;;10.67;43.59
50684;BME280;36654;45.042;38.994;2023-04-02T05:56:16;100701.16;;;10.53;43.98
50684;BME280;36654;45.042;38.994;2023-04-02T05:58:50;100706.53;;;10.61;43.78
50684;BME280;36654;45.042;38.994;2023-04-02T06:09:21;100680.81;;;10.54;42.57
50684;BME280;36654;45.042;38.994;2023-04-02T06:11:57;100730.50;;;10.72;42.50
50684;BME280;36654;45.042;38.994;2023-04-02T06:14:26;100717.97;;;10.58;42.35
50684;BME280;36654;45.042;38.994;2023-04-02T06:16:51;100728.63;;;10.62;42.05
50684;BME280;36654;45.042;38.994;2023-04-02T06:19:25;100727.66;;;10.58;42.34
50684;BME280;36654;45.042;38.994;2023-04-02T06:21:58;100718.75;;;10.50;42.10
50684;BME280;36654;45.042;38.994;2023-04-02T06:24:26;100720.59;;;10.57;42.52
50684;BME280;36654;45.042;38.994;2023-04-02T06:27:04;100731.25;;;10.63;42.92
50684;BME280;36654;45.042;38.994;2023-04-02T06:29:36;100731.31;;;10.68;43.03
50684;BME280;36654;45.042;38.994;2023-04-02T06:32:09;100711.09;;;10.76;43.04
50684;BME280;36654;45.042;38.994;2023-04-02T06:34:37;100727.09;;;10.88;42.76
50684;BME280;36654;45.042;38.994;2023-04-02T06:39:38;100660.66;;;10.73;42.51
50684;BME280;36654;45.042;38.994;2023-04-02T06:42:16;100702.47;;;10.98;42.45
50684;BME280;36654;45.042;38.994;2023-04-02T06:44:43;100706.94;;;11.07;42.27
50684;BME280;36654;45.042;38.994;2023-04-02T06:47:18;100710.59;;;11.23;42.41
50684;BME280;36654;45.042;38.994;2023-04-02T06:52:44;100697.31;;;11.17;42.40
50684;BME280;36654;45.042;38.994;2023-04-02T06:58:04;100703.50;;;11.20;42.43
50684;BME280;36654;45.042;38.994;2023-04-02T07:00:42;100690.25;;;11.16;41.93
50684;BME280;36654;45.042;38.994;2023-04-02T07:03:20;100703.63;;;11.33;41.64
50684;BME280;36654;45.042;38.994;2023-04-02T07:05:47;100701.06;;;11.47;41.33
50684;BME280;36654;45.042;38.994;2023-04-02T07:08:13;100688.66;;;11.41;40.90
50684;BME280;36654;45.042;38.994;2023-04-02T07:10:39;100706.44;;;11.54;40.29
50684;BME280;36654;45.042;38.994;2023-04-02T07:13:05;100693.13;;;11.50;40.54
50684;BME280;36654;45.042;38.994;2023-04-02T07:15:30;100713.50;;;11.52;41.14
50684;BME280;36654;45.042;38.994;2023-04-02T07:17:57;100652.31;;;11.32;40.65
50684;BME280;36654;45.042;38.994;2023-04-02T07:20:33;100700.28;;;11.63;40.58
50684;BME280;36654;45.042;38.994;2023-04-02T07:23:02;100703.00;;;11.69;40.88
50684;BME280;36654;45.042;38.994;2023-04-02T07:25:28;100706.63;;;11.83;41.24
50684;BME280;36654;45.042;38.994;2023-04-02T07:27:54;100712.00;;;11.90;40.67
50684;BME280;36654;45.042;38.994;2023-04-02T07:30:20;100708.47;;;11.94;39.97
50684;BME280;36654;45.042;38.994;2023-04-02T07:32:45;100701.41;;;11.99;39.75
50684;BME280;36654;45.042;38.994;2023-04-02T07:35:11;100714.69;;;12.00;39.32
50684;BME280;36654;45.042;38.994;2023-04-02T07:37:37;100690.81;;;12.05;39.58
50684;BME280;36654;45.042;38.994;2023-04-02T07:40:17;100694.38;;;12.10;39.70
50684;BME280;36654;45.042;38.994;2023-04-02T07:42:45;100694.44;;;12.25;39.13
50684;BME280;36654;45.042;38.994;2023-04-02T07:45:11;100685.63;;;12.39;38.66
50684;BME280;36654;45.042;38.994;2023-04-02T07:47:37;100682.09;;;12.52;38.52
50684;BME280;36654;45.042;38.994;2023-04-02T07:50:03;100682.16;;;12.70;38.46
50684;BME280;36654;45.042;38.994;2023-04-02T07:52:28;100692.81;;;12.92;38.28
50684;BME280;36654;45.042;38.994;2023-04-02T07:54:54;100683.97;;;13.08;38.41
50684;BME280;36654;45.042;38.994;2023-04-02T07:57:19;100695.50;;;13.30;38.01
50684;BME280;36654;45.042;38.994;2023-04-02T07:59:45;100686.63;;;13.42;37.03
50684;BME280;36654;45.042;38.994;2023-04-02T08:02:19;100686.63;;;13.48;36.29
50684;BME280;36654;45.042;38.994;2023-04-02T08:04:48;100680.41;;;13.40;36.45
50684;BME280;36654;45.042;38.994;2023-04-02T08:07:16;100686.63;;;13.47;36.53
50684;BME280;36654;45.042;38.994;2023-04-02T08:09:41;100676.84;;;13.50;36.48
50684;BME280;36654;45.042;38.994;2023-04-02T08:12:10;100675.03;;;13.65;35.99
50684;BME280;36654;45.042;38.994;2023-04-02T08:14:37;100631.59;;;13.49;36.22
50684;BME280;36654;45.042;38.994;2023-04-02T08:17:02;100686.56;;;13.76;35.94
50684;BME280;36654;45.042;38.994;2023-04-02T08:19:28;100682.09;;;13.84;36.32
50684;BME280;36654;45.042;38.994;2023-04-02T08:21:54;100696.31;;;13.86;36.31
50684;BME280;36654;45.042;38.994;2023-04-02T08:24:21;100676.78;;;13.76;36.52
50684;BME280;36654;45.042;38.994;2023-04-02T08:26:48;100622.69;;;13.54;36.61
50684;BME280;36654;45.042;38.994;2023-04-02T08:29:14;100678.53;;;13.82;36.48
50684;BME280;36654;45.042;38.994;2023-04-02T08:31:40;100687.47;;;13.72;36.74
50684;BME280;36654;45.042;38.994;2023-04-02T08:34:06;100633.34;;;13.45;36.89
50684;BME280;36654;45.042;38.994;2023-04-02T08:36:34;100670.56;;;13.77;37.22
50684;BME280;36654;45.042;38.994;2023-04-02T08:39:01;100663.44;;;13.87;36.90
50684;BME280;36654;45.042;38.994;2023-04-02T08:41:27;100667.84;;;14.00;36.85
50684;BME280;36654;45.042;38.994;2023-04-02T08:46:42;100655.22;;;14.30;35.80
50684;BME280;36654;45.042;38.994;2023-04-02T08:49:26;100659.69;;;14.33;35.86
50684;BME280;36654;45.042;38.994;2023-04-02T08:51:53;100665.88;;;14.36;36.03
50684;BME280;36654;45.042;38.994;2023-04-02T08:54:24;100590.44;;;14.19;36.06
50684;BME280;36654;45.042;38.994;2023-04-02T08:56:55;100669.38;;;14.54;34.83
50684;BME280;36654;45.042;38.994;2023-04-02T08:59:29;100649.78;;;14.55;34.70
50684;BME280;36654;45.042;38.994;2023-04-02T09:04:43;100662.13;;;14.74;34.44
50684;BME280;36654;45.042;38.994;2023-04-02T09:07:15;100599.06;;;14.62;34.38
50684;BME280;36654;45.042;38.994;2023-04-02T09:09:41;100630.91;;;14.85;34.32
50684;BME280;36654;45.042;38.994;2023-04-02T09:12:19;100577.66;;;14.73;34.21
50684;BME280;36654;45.042;38.994;2023-04-02T09:17:35;100633.31;;;15.16;31.61
50684;BME280;36654;45.042;38.994;2023-04-02T09:20:17;100634.19;;;15.18;30.53
50684;BME280;36654;45.042;38.994;2023-04-02T09:22:48;100621.69;;;15.22;31.72
50684;BME280;36654;45.042;38.994;2023-04-02T09:25:21;100633.19;;;15.28;31.13
50684;BME280;36654;45.042;38.994;2023-04-02T09:27:52;100614.47;;;15.33;31.39
50684;BME280;36654;45.042;38.994;2023-04-02T09:33:04;100607.84;;;15.65;31.72
50684;BME280;36654;45.042;38.994;2023-04-02T09:35:36;100611.28;;;15.81;31.54
50684;BME280;36654;45.042;38.994;2023-04-02T09:38:20;100612.69;;;16.09;30.82
50684;BME280;36654;45.042;38.994;2023-04-02T09:43:30;100595.59;;;16.23;30.68
50684;BME280;36654;45.042;38.994;2023-04-02T09:46:19;100599.91;;;16.30;30.66
50684;BME280;36654;45.042;38.994;2023-04-02T09:48:53;100598.09;;;16.35;30.86
50684;BME280;36654;45.042;38.994;2023-04-02T09:51:32;100611.28;;;16.46;29.92
50684;BME280;36654;45.042;38.994;2023-04-02T09:56:29;100602.38;;;16.45;30.55
50684;BME280;36654;45.042;38.994;2023-04-02T10:01:42;100612.06;;;16.52;29.74
50684;BME280;36654;45.042;38.994;2023-04-02T10:04:35;100608.50;;;16.53;30.11
50684;BME280;36654;45.042;38.994;2023-04-02T10:07:02;100612.06;;;16.52;30.29
50684;BME280;36654;45.042;38.994;2023-04-02T10:09:36;100594.38;;;16.45;29.74
50684;BME280;36654;45.042;38.994;2023-04-02T10:12:10;100563.44;;;16.26;29.89
50684;BME280;36654;45.042;38.994;2023-04-02T10:14:40;100576.69;;;16.35;29.56
50684;BME280;36654;45.042;38.994;2023-04-02T10:17:20;100599.53;;;16.57;29.86
50684;BME280;36654;45.042;38.994;2023-04-02T10:19:55;100599.53;;;16.57;30.29
50684;BME280;36654;45.042;38.994;2023-04-02T10:22:23;100594.13;;;16.60;29.99
50684;BME280;36654;45.042;38.994;2023-04-02T10:24:49;100593.88;;;16.76;29.81
50684;BME280;36654;45.042;38.994;2023-04-02T10:27:36;100592.69;;;16.95;29.70
50684;BME280;36654;45.042;38.994;2023-04-02T10:30:21;100597.84;;;17.08;28.97
50684;BME280;36654;45.042;38.994;2023-04-02T10:32:58;100595.25;;;17.01;28.88
50684;BME280;36654;45.042;38.994;2023-04-02T10:38:50;100594.75;;;16.76;28.95
50684;BME280;36654;45.042;38.994;2023-04-02T10:41:41;100555.03;;;16.50;29.27
50684;BME280;36654;45.042;38.994;2023-04-02T10:44:49;100598.50;;;16.65;29.54
50684;BME280;36654;45.042;38.994;2023-04-02T10:47:26;100595.00;;;16.59;29.54
50684;BME280;36654;45.042;38.994;2023-04-02T10:53:10;100575.72;;;16.39;29.62
50684;BME280;36654;45.042;38.994;2023-04-02T10:55:43;100592.44;;;16.53;29.60
50684;BME280;36654;45.042;38.994;2023-04-02T10:58:29;100583.41;;;16.60;29.54
50684;BME280;36654;45.042;38.994;2023-04-02T11:01:00;100586.84;;;16.69;29.50
50684;BME280;36654;45.042;38.994;2023-04-02T11:03:57;100582.28;;;16.75;29.18
50684;BME280;36654;45.042;38.994;2023-04-02T11:06:41;100576.25;;;16.63;29.05
50684;BME280;36654;45.042;38.994;2023-04-02T11:09:17;100578.94;;;16.61;28.96
50684;BME280;36654;45.042;38.994;2023-04-02T11:11:48;100585.09;;;16.66;29.10
50684;BME280;36654;45.042;38.994;2023-04-02T11:14:23;100593.06;;;16.69;28.76
50684;BME280;36654;45.042;38.994;2023-04-02T11:16:49;100545.34;;;16.43;29.14
50684;BME280;36654;45.042;38.994;2023-04-02T11:21:59;100571.84;;;16.58;29.00
50684;BME280;36654;45.042;38.994;2023-04-02T11:29:49;100565.63;;;16.56;29.28
50684;BME280;36654;45.042;38.994;2023-04-02T11:37:39;100565.38;;;16.72;28.81
50684;BME280;36654;45.042;38.994;2023-04-02T11:42:45;100569.47;;;16.94;29.33
50684;BME280;36654;45.042;38.994;2023-04-02T11:50:38;100594.97;;;17.17;28.26
50684;BME280;36654;45.042;38.994;2023-04-02T11:55:43;100589.59;;;17.17;28.14
50684;BME280;36654;45.042;38.994;2023-04-02T12:14:55;100578.13;;;17.57;27.93
50684;BME280;36654;45.042;38.994;2023-04-02T12:20:12;100574.22;;;17.73;28.05
50684;BME280;36654;45.042;38.994;2023-04-02T12:22:54;100562.44;;;17.82;28.27
50684;BME280;36654;45.042;38.994;2023-04-02T12:30:31;100560.69;;;17.81;28.02
50684;BME280;36654;45.042;38.994;2023-04-02T12:33:16;100570.47;;;17.83;27.89
50684;BME280;36654;45.042;38.994;2023-04-02T12:35:53;100563.97;;;17.95;28.18
50684;BME280;36654;45.042;38.994;2023-04-02T12:38:25;100568.38;;;17.98;28.52
50684;BME280;36654;45.042;38.994;2023-04-02T12:40:58;100555.94;;;17.94;28.39
50684;BME280;36654;45.042;38.994;2023-04-02T12:43:29;100549.81;;;17.87;28.45
50684;BME280;36654;45.042;38.994;2023-04-02T12:46:04;100550.84;;;17.81;28.50
50684;BME280;36654;45.042;38.994;2023-04-02T12:48:32;100529.69;;;17.66;28.38
50684;BME280;36654;45.042;38.994;2023-04-02T12:50:59;100552.66;;;17.81;28.51
50684;BME280;36654;45.042;38.994;2023-04-02T12:53:38;100557.13;;;17.79;28.46
50684;BME280;36654;45.042;38.994;2023-04-02T12:56:04;100559.81;;;17.80;27.97
50684;BME280;36654;45.042;38.994;2023-04-02T12:58:38;100519.84;;;17.66;28.25
50684;BME280;36654;45.042;38.994;2023-04-02T13:01:22;100549.72;;;17.93;28.09
50684;BME280;36654;45.042;38.994;2023-04-02T13:04:09;100554.19;;;17.93;28.04
50684;BME280;36654;45.042;38.994;2023-04-02T13:06:40;100527.00;;;17.67;28.31
50684;BME280;36654;45.042;38.994;2023-04-02T13:09:32;100554.50;;;17.77;28.35
50684;BME280;36654;45.042;38.994;2023-04-02T13:12:00;100545.72;;;17.69;28.58
50684;BME280;36654;45.042;38.994;2023-04-02T13:14:26;100541.28;;;17.66;28.78
50684;BME280;36654;45.042;38.994;2023-04-02T13:16:52;100540.34;;;17.69;28.67
50684;BME280;36654;45.042;38.994;2023-04-02T13:19:25;100537.59;;;17.72;28.58
50684;BME280;36654;45.042;38.994;2023-04-02T13:21:52;100495.03;;;17.57;28.14
50684;BME280;36654;45.042;38.994;2023-04-02T13:24:29;100505.66;;;17.63;27.98
50684;BME280;36654;45.042;38.994;2023-04-02T13:26:57;100528.44;;;17.84;28.19
50684;BME280;36654;45.042;38.994;2023-04-02T13:29:33;100534.75;;;17.81;28.41
50684;BME280;36654;45.042;38.994;2023-04-02T13:32:02;100536.56;;;17.79;28.35
50684;BME280;36654;45.042;38.994;2023-04-02T13:34:28;100527.88;;;17.68;28.15
50684;BME280;36654;45.042;38.994;2023-04-02T13:36:55;100531.31;;;17.75;27.95
50684;BME280;36654;45.042;38.994;2023-04-02T13:39:22;100531.41;;;17.70;28.24
50684;BME280;36654;45.042;38.994;2023-04-02T13:41:57;100518.91;;;17.69;28.37
50684;BME280;36654;45.042;38.994;2023-04-02T13:44:26;100489.03;;;17.45;28.50
50684;BME280;36654;45.042;38.994;2023-04-02T13:46:53;100532.34;;;17.67;28.70
50684;BME280;36654;45.042;38.994;2023-04-02T13:49:20;100535.00;;;17.69;28.53
50684;BME280;36654;45.042;38.994;2023-04-02T13:51:50;100538.44;;;17.74;28.80
50684;BME280;36654;45.042;38.994;2023-04-02T13:54:25;100496.78;;;17.59;28.49
50684;BME280;36654;45.042;38.994;2023-04-02T13:56:51;100529.31;;;17.84;27.99
50684;BME280;36654;45.042;38.994;2023-04-02T13:59:19;100522.13;;;17.86;28.02
50684;BME280;36654;45.042;38.994;2023-04-02T14:01:46;100493.94;;;17.67;28.02
50684;BME280;36654;45.042;38.994;2023-04-02T14:04:16;100501.00;;;17.69;28.01
50684;BME280;36654;45.042;38.994;2023-04-02T14:15:26;100529.84;;;17.60;28.66
50684;BME280;36654;45.042;38.994;2023-04-02T14:21:16;100544.28;;;17.53;28.42
50684;BME280;36654;45.042;38.994;2023-04-02T14:40:37;100551.63;;;17.41;28.87
50684;BME280;36654;45.042;38.994;2023-04-02T14:43:18;100558.81;;;17.39;29.06
50684;BME280;36654;45.042;38.994;2023-04-02T14:46:01;100558.81;;;17.39;29.07
50684;BME280;36654;45.042;38.994;2023-04-02T14:48:47;100556.19;;;17.38;29.35
50684;BME280;36654;45.042;38.994;2023-04-02T14:56:43;100562.53;;;17.32;29.19
50684;BME280;36654;45.042;38.994;2023-04-02T15:02:06;100581.41;;;17.26;29.25
50684;BME280;36654;45.042;38.994;2023-04-02T15:04:37;100575.25;;;17.21;29.24
50684;BME280;36654;45.042;38.994;2023-04-02T15:07:57;100565.63;;;17.11;29.19
50684;BME280;36654;45.042;38.994;2023-04-02T15:10:16;100580.78;;;17.12;28.24
50684;BME280;36654;45.042;38.994;2023-04-02T15:12:45;100534.06;;;16.80;28.55
50684;BME280;36654;45.042;38.994;2023-04-02T15:17:58;100527.97;;;16.69;26.05
50684;BME280;36654;45.042;38.994;2023-04-02T15:20:33;100575.75;;;16.93;26.25
50684;BME280;36654;45.042;38.994;2023-04-02T15:26:19;100582.06;;;16.91;24.72
50684;BME280;36654;45.042;38.994;2023-04-02T15:29:04;100570.63;;;16.81;24.49
50684;BME280;36654;45.042;38.994;2023-04-02T15:31:32;100582.19;;;16.83;24.04
50684;BME280;36654;45.042;38.994;2023-04-02T15:34:13;100555.72;;;16.63;23.84
50684;BME280;36654;45.042;38.994;2023-04-02T15:40:03;100588.53;;;16.74;23.93
50684;BME280;36654;45.042;38.994;2023-04-02T15:42:37;100584.22;;;16.64;24.41
50684;BME280;36654;45.042;38.994;2023-04-02T15:47:56;100582.56;;;16.57;24.17
50684;BME280;36654;45.042;38.994;2023-04-02T15:51:13;100587.97;;;16.55;24.64
50684;BME280;36654;45.042;38.994;2023-04-02T15:59:00;100595.41;;;16.33;25.31
50684;BME280;36654;45.042;38.994;2023-04-02T16:12:54;100612.72;;;16.08;28.30
50684;BME280;36654;45.042;38.994;2023-04-02T16:15:29;100579.16;;;15.84;28.58
50684;BME280;36654;45.042;38.994;2023-04-02T16:18:00;100626.09;;;16.05;29.08
50684;BME280;36654;45.042;38.994;2023-04-02T16:20:33;100623.53;;;15.97;29.57
50684;BME280;36654;45.042;38.994;2023-04-02T16:23:34;100616.44;;;15.96;30.10
50684;BME280;36654;45.042;38.994;2023-04-02T16:26:11;100623.63;;;15.91;30.39
50684;BME280;36654;45.042;38.994;2023-04-02T16:28:49;100616.53;;;15.87;31.05
50684;BME280;36654;45.042;38.994;2023-04-02T16:31:37;100628.16;;;15.86;31.22
50684;BME280;36654;45.042;38.994;2023-04-02T16:35:04;100632.63;;;15.84;31.38
50684;BME280;36654;45.042;38.994;2023-04-02T16:37:39;100623.88;;;15.72;31.68
50684;BME280;36654;45.042;38.994;2023-04-02T16:43:09;100631.84;;;15.74;31.40
50684;BME280;36654;45.042;38.994;2023-04-02T16:46:07;100645.22;;;15.74;31.17
50684;BME280;36654;45.042;38.994;2023-04-02T16:48:38;100638.06;;;15.74;31.01
50684;BME280;36654;45.042;38.994;2023-04-02T16:51:19;100645.25;;;15.72;30.02
50684;BME280;36654;45.042;38.994;2023-04-02T16:54:08;100638.13;;;15.68;29.47